Time;durP1;ratioP1;P1;durP2;ratioP2;P2;SDS_P1;SDS_P2;PMS_P1;PMS_P2;Temp;Humidity;BMP_temperature;BMP_pressure;BME280_temperature;BME280_humidity;BME280_pressure;Samples;Min_cycle;Max_cycle;Signal;HPM_P1;HPM_P2
2022/10/04 00:01:05;;;;;;;6.35;3.42;;;14.80;77.50;;;;;;5013420;28;20076;-67
2022/10/04 00:03:43;;;;;;;7.28;3.80;;;14.70;77.60;;;;;;5013756;28;20040;-68
2022/10/04 00:06:24;;;;;;;5.38;3.55;;;14.70;77.70;;;;;;5013419;28;20229;-67
2022/10/04 00:08:55;;;;;;;6.20;3.17;;;14.70;77.80;;;;;;5013238;28;20034;-66
2022/10/04 00:11:25;;;;;;;4.40;3.10;;;14.70;77.80;;;;;;5013125;28;20112;-66
2022/10/04 00:13:56;;;;;;;7.07;3.00;;;14.60;77.90;;;;;;5013245;28;20698;-67
2022/10/04 00:16:30;;;;;;;5.25;3.30;;;14.60;78.00;;;;;;5013151;28;20119;-66
2022/10/04 00:19:23;;;;;;;5.10;3.00;;;14.60;78.10;;;;;;5012731;28;20030;-67
2022/10/04 00:21:55;;;;;;;5.88;3.08;;;14.70;78.00;;;;;;5011760;28;20527;-66
2022/10/04 00:24:28;;;;;;;5.72;2.42;;;14.60;78.10;;;;;;5011500;28;20061;-67
2022/10/04 00:27:23;;;;;;;4.60;2.67;;;14.60;78.10;;;;;;5013291;28;20487;-67
2022/10/04 00:30:20;;;;;;;5.38;2.70;;;14.70;78.10;;;;;;5013033;28;20507;-66
2022/10/04 00:33:03;;;;;;;5.45;2.70;;;14.70;77.90;;;;;;5012169;28;20689;-67
2022/10/04 00:35:28;;;;;;;6.35;3.00;;;14.70;77.80;;;;;;5012632;28;20026;-68
2022/10/04 00:37:58;;;;;;;5.78;2.70;;;14.70;77.80;;;;;;5012659;28;20032;-67
2022/10/04 00:40:32;;;;;;;4.63;2.75;;;14.70;77.70;;;;;;5012704;28;20038;-67
2022/10/04 00:43:11;;;;;;;6.93;2.83;;;14.70;77.70;;;;;;5013144;28;20164;-67
2022/10/04 00:45:48;;;;;;;5.75;3.40;;;14.70;77.70;;;;;;5011401;28;20046;-67
2022/10/04 00:48:31;;;;;;;4.93;2.83;;;14.70;77.70;;;;;;5012678;28;20030;-67
2022/10/04 00:51:23;;;;;;;7.28;2.90;;;14.70;77.70;;;;;;5013883;28;20038;-66
2022/10/04 00:53:58;;;;;;;7.28;3.53;;;14.70;77.70;;;;;;5014067;28;20432;-66
2022/10/04 00:56:39;;;;;;;6.80;3.80;;;14.70;77.80;;;;;;5013810;28;20105;-66
2022/10/04 00:59:16;;;;;;;6.32;3.30;;;14.60;78.00;;;;;;5014788;28;20036;-67
2022/10/04 01:01:46;;;;;;;5.15;3.08;;;14.50;78.20;;;;;;5014596;28;20040;-67
2022/10/04 01:04:47;;;;;;;6.30;3.20;;;14.50;78.30;;;;;;5013453;28;20017;-67
2022/10/04 01:07:16;;;;;;;5.70;2.88;;;14.50;78.30;;;;;;5009891;28;20053;-68
2022/10/04 01:10:07;;;;;;;4.70;2.80;;;14.50;78.20;;;;;;5013532;28;20284;-68
2022/10/04 01:12:54;;;;;;;5.65;3.03;;;14.50;78.30;;;;;;5013376;28;20424;-66
2022/10/04 01:15:58;;;;;;;6.05;3.28;;;14.50;78.20;;;;;;5012317;28;20030;-67
2022/10/04 01:18:24;;;;;;;4.97;3.20;;;14.50;78.20;;;;;;5011916;28;20025;-67
2022/10/04 01:21:12;;;;;;;5.78;3.60;;;14.40;78.30;;;;;;5012293;28;20026;-67
2022/10/04 01:23:42;;;;;;;7.15;4.03;;;14.40;78.40;;;;;;5011243;28;20064;-66
2022/10/04 01:26:28;;;;;;;6.78;3.70;;;14.30;78.70;;;;;;5011836;28;20026;-66
2022/10/04 01:29:09;;;;;;;7.35;3.90;;;14.30;79.00;;;;;;5011133;28;20042;-66
2022/10/04 01:31:40;;;;;;;10.70;4.43;;;14.30;79.10;;;;;;5011802;28;20034;-66
2022/10/04 01:34:07;;;;;;;5.45;3.55;;;14.20;79.30;;;;;;5011906;28;20029;-66
2022/10/04 01:36:33;;;;;;;5.35;3.45;;;14.20;79.50;;;;;;5013377;28;20026;-66
2022/10/04 01:38:59;;;;;;;6.05;3.70;;;14.20;79.60;;;;;;5012610;28;20018;-66
2022/10/04 01:41:40;;;;;;;6.45;3.70;;;14.20;79.50;;;;;;5013134;28;20022;-66
2022/10/04 01:44:11;;;;;;;4.80;3.42;;;14.30;79.60;;;;;;5011015;28;20034;-66
2022/10/04 01:46:39;;;;;;;8.57;4.05;;;14.30;79.50;;;;;;5011343;28;20026;-66
2022/10/04 01:49:11;;;;;;;6.13;3.83;;;14.30;79.50;;;;;;5011099;28;20025;-66
2022/10/04 01:51:43;;;;;;;7.47;3.88;;;14.30;79.50;;;;;;5011272;28;20554;-66
2022/10/04 01:54:13;;;;;;;9.70;4.40;;;14.30;79.50;;;;;;5011302;28;20021;-66
2022/10/04 01:56:53;;;;;;;8.30;3.80;;;14.20;79.50;;;;;;5011261;28;20171;-66
2022/10/04 01:59:24;;;;;;;6.20;3.60;;;14.20;79.60;;;;;;5010744;28;20149;-66
2022/10/04 02:01:56;;;;;;;4.95;3.83;;;14.20;79.60;;;;;;5011331;28;20044;-66
2022/10/04 02:04:31;;;;;;;7.05;4.28;;;14.20;79.70;;;;;;5010953;28;20041;-66
2022/10/04 02:06:59;;;;;;;8.80;4.63;;;14.20;79.80;;;;;;5011290;28;20403;-66
2022/10/04 02:09:30;;;;;;;8.90;4.95;;;14.10;79.90;;;;;;5010759;28;20054;-66
2022/10/04 02:11:57;;;;;;;8.40;4.68;;;14.10;80.20;;;;;;5011274;28;20033;-66
2022/10/04 02:14:26;;;;;;;8.02;4.68;;;14.00;80.30;;;;;;5010409;28;20022;-67
2022/10/04 02:16:52;;;;;;;8.88;5.53;;;14.00;80.40;;;;;;5010879;28;20120;-67
2022/10/04 02:19:21;;;;;;;7.45;5.22;;;14.00;80.60;;;;;;5010599;28;20420;-67
2022/10/04 02:21:48;;;;;;;8.20;4.45;;;14.00;80.70;;;;;;5011099;28;20369;-67
2022/10/04 02:24:15;;;;;;;6.57;4.38;;;14.00;80.70;;;;;;5011188;28;20033;-66
2022/10/04 02:26:40;;;;;;;7.72;4.00;;;14.00;80.60;;;;;;5011193;28;20060;-66
2022/10/04 02:29:07;;;;;;;7.95;4.78;;;14.00;80.50;;;;;;5011260;28;20061;-66
2022/10/04 02:34:20;;;;;;;7.63;4.40;;;14.10;80.50;;;;;;5010903;28;20037;-67
2022/10/04 02:36:50;;;;;;;4.90;3.60;;;14.10;80.40;;;;;;5010757;28;20385;-66
2022/10/04 02:39:27;;;;;;;7.13;4.25;;;14.10;80.40;;;;;;5011497;28;20472;-66
2022/10/04 02:42:03;;;;;;;5.95;3.53;;;14.00;80.30;;;;;;5011515;28;20029;-66
2022/10/04 02:44:40;;;;;;;6.00;3.60;;;14.00;80.30;;;;;;5011298;28;20053;-66
2022/10/04 02:47:20;;;;;;;5.53;3.50;;;14.00;80.30;;;;;;5012631;28;20566;-66
2022/10/04 02:49:58;;;;;;;7.88;4.40;;;14.00;80.30;;;;;;5012618;28;20033;-66
2022/10/04 02:52:37;;;;;;;6.20;3.67;;;14.00;80.30;;;;;;5013233;28;20392;-67
2022/10/04 02:55:06;;;;;;;6.15;3.90;;;13.90;80.30;;;;;;5013459;28;20022;-66
2022/10/04 02:57:33;;;;;;;5.63;3.45;;;13.90;81.00;;;;;;5011825;28;20049;-67
2022/10/04 03:00:08;;;;;;;7.03;3.58;;;13.90;80.30;;;;;;5013142;28;20021;-67
2022/10/04 03:02:33;;;;;;;5.95;3.92;;;13.90;80.40;;;;;;5012813;28;20034;-66
2022/10/04 03:05:08;;;;;;;7.40;4.20;;;13.90;80.40;;;;;;5013236;28;20029;-67
2022/10/04 03:07:35;;;;;;;6.15;3.60;;;13.90;80.50;;;;;;5012791;28;20022;-66
2022/10/04 03:10:06;;;;;;;6.13;3.95;;;13.80;80.50;;;;;;5012404;28;20748;-67
2022/10/04 03:12:32;;;;;;;7.50;3.70;;;13.80;80.50;;;;;;5011721;28;20022;-66
2022/10/04 03:14:58;;;;;;;4.90;3.67;;;13.80;80.60;;;;;;5012262;28;20026;-66
2022/10/04 03:17:24;;;;;;;6.45;3.83;;;13.80;80.60;;;;;;5012922;28;20573;-66
2022/10/04 03:19:50;;;;;;;6.20;3.90;;;13.80;80.60;;;;;;5013044;28;20025;-66
2022/10/04 03:22:17;;;;;;;5.80;3.63;;;13.70;80.60;;;;;;5013016;28;20627;-66
2022/10/04 03:24:46;;;;;;;6.38;3.50;;;13.70;80.60;;;;;;5012737;28;20569;-66
2022/10/04 03:27:18;;;;;;;6.07;3.53;;;13.70;80.60;;;;;;5014711;28;20018;-66
2022/10/04 03:29:44;;;;;;;5.65;3.78;;;13.70;80.60;;;;;;5016123;28;20036;-66
2022/10/04 03:32:13;;;;;;;5.05;3.75;;;13.70;80.60;;;;;;5015953;28;20029;-66
2022/10/04 03:34:42;;;;;;;6.47;4.15;;;13.70;80.60;;;;;;4996034;28;20034;-65
2022/10/04 03:37:15;;;;;;;4.95;3.70;;;13.70;80.50;;;;;;4995674;28;20524;-65
2022/10/04 03:39:46;;;;;;;6.63;4.15;;;13.70;80.50;;;;;;5014061;28;20033;-65
2022/10/04 03:42:21;;;;;;;5.15;3.50;;;13.60;80.40;;;;;;5015666;28;20029;-65
2022/10/04 03:44:50;;;;;;;7.65;3.90;;;13.60;80.40;;;;;;5015866;28;20025;-65
2022/10/04 03:47:26;;;;;;;5.68;4.20;;;13.60;80.50;;;;;;5015171;28;20100;-65
2022/10/04 03:49:54;;;;;;;6.55;3.88;;;13.50;80.50;;;;;;5014235;28;20054;-65
2022/10/04 03:52:32;;;;;;;6.47;4.18;;;13.50;80.60;;;;;;5014275;28;20022;-66
2022/10/04 03:55:05;;;;;;;5.45;3.90;;;13.40;80.70;;;;;;4994461;28;20400;-66
2022/10/04 03:57:32;;;;;;;5.25;3.85;;;13.40;80.70;;;;;;4994557;28;20543;-66
2022/10/04 03:59:59;;;;;;;5.97;3.72;;;13.40;81.40;;;;;;5008735;28;20372;-66
2022/10/04 04:02:24;;;;;;;5.95;3.75;;;13.30;80.80;;;;;;5013394;28;20096;-66
2022/10/04 04:05:14;;;;;;;5.05;3.80;;;13.20;80.90;;;;;;5013171;28;20033;-66
2022/10/04 04:08:03;;;;;;;5.28;3.50;;;13.20;80.90;;;;;;5013445;28;20029;-66
2022/10/04 04:10:32;;;;;;;7.13;4.20;;;13.20;80.80;;;;;;5012285;28;20381;-66
2022/10/04 04:13:10;;;;;;;5.45;3.78;;;13.20;80.90;;;;;;5013544;28;20026;-67
2022/10/04 04:15:42;;;;;;;6.55;4.00;;;13.10;80.90;;;;;;5012974;28;20057;-67
2022/10/04 04:18:20;;;;;;;5.72;3.60;;;13.10;80.90;;;;;;5013558;28;20366;-66
2022/10/04 04:20:48;;;;;;;7.55;4.40;;;13.00;80.90;;;;;;5012979;28;20403;-66
2022/10/04 04:23:13;;;;;;;7.07;4.50;;;13.00;81.20;;;;;;5013444;28;20022;-67
2022/10/04 04:25:44;;;;;;;6.22;4.38;;;12.90;81.40;;;;;;5011748;28;20492;-68
2022/10/04 04:28:38;;;;;;;5.88;4.15;;;12.90;81.40;;;;;;5012821;28;20389;-67
2022/10/04 04:31:12;;;;;;;7.20;4.38;;;12.90;81.40;;;;;;5014121;28;20237;-67
2022/10/04 04:33:47;;;;;;;6.97;4.10;;;12.90;81.40;;;;;;5012713;28;20041;-67
2022/10/04 04:36:15;;;;;;;6.22;4.75;;;12.90;81.30;;;;;;5012836;28;20056;-66
2022/10/04 04:41:30;;;;;;;6.80;4.57;;;12.80;81.40;;;;;;5013625;28;20045;-66
2022/10/04 04:43:56;;;;;;;8.38;4.38;;;12.70;81.50;;;;;;5013301;28;20080;-66
2022/10/04 04:46:23;;;;;;;6.30;4.63;;;12.70;81.60;;;;;;5013341;28;20384;-66
2022/10/04 04:48:55;;;;;;;5.43;4.10;;;12.70;81.50;;;;;;5012927;28;20026;-66
2022/10/04 04:51:22;;;;;;;;;;;12.70;81.50;;;;;;5013223;28;20033;-67
2022/10/04 04:53:51;;;;;;;9.18;5.22;;;12.70;81.30;;;;;;5011787;28;20283;-66
2022/10/04 04:56:20;;;;;;;6.25;4.80;;;12.60;81.70;;;;;;5012850;28;20022;-67
2022/10/04 04:58:48;;;;;;;5.30;4.32;;;12.60;81.80;;;;;;5012885;28;20041;-67
2022/10/04 05:01:34;;;;;;;6.32;4.32;;;12.60;81.80;;;;;;5012565;28;20050;-67
2022/10/04 05:04:17;;;;;;;6.40;4.35;;;12.50;81.80;;;;;;4997190;28;20484;-67
2022/10/04 05:06:47;;;;;;;6.13;4.15;;;12.60;81.80;;;;;;5012248;28;20104;-66
2022/10/04 05:09:30;;;;;;;6.60;4.88;;;12.60;81.80;;;;;;5012814;28;20388;-66
2022/10/04 05:12:18;;;;;;;5.95;4.68;;;12.60;81.80;;;;;;5012389;28;20565;-67
2022/10/04 05:14:48;;;;;;;6.13;4.72;;;12.50;82.40;;;;;;5011778;28;20033;-67
2022/10/04 05:17:19;;;;;;;6.72;4.85;;;12.50;81.90;;;;;;5008808;28;20034;-66
2022/10/04 05:19:45;;;;;;;7.22;5.43;;;12.50;82.00;;;;;;5009421;28;20017;-67
2022/10/04 05:22:13;;;;;;;11.40;6.28;;;12.50;81.90;;;;;;5007662;28;20080;-67
2022/10/04 05:24:42;;;;;;;8.95;5.60;;;12.40;82.00;;;;;;4999881;28;20045;-67
2022/10/04 05:27:26;;;;;;;7.30;5.40;;;12.40;82.10;;;;;;5011387;28;20105;-67
2022/10/04 05:30:07;;;;;;;7.82;4.80;;;12.40;82.30;;;;;;5010772;28;20026;-67
2022/10/04 05:32:52;;;;;;;8.30;5.90;;;12.40;82.20;;;;;;5004820;28;20060;-67
2022/10/04 05:35:20;;;;;;;9.00;6.05;;;12.40;82.10;;;;;;4992738;28;20073;-68
2022/10/04 05:37:52;;;;;;;9.93;5.75;;;12.30;82.30;;;;;;5009357;28;20046;-68
2022/10/04 05:40:56;;;;;;;6.78;5.43;;;12.30;82.50;;;;;;5004938;28;20033;-68
2022/10/04 05:43:29;;;;;;;7.15;5.63;;;12.20;82.50;;;;;;5000634;28;20069;-68
2022/10/04 05:46:27;;;;;;;7.85;5.53;;;12.20;82.50;;;;;;5007286;28;20064;-68
2022/10/04 05:48:56;;;;;;;7.78;5.28;;;12.20;82.50;;;;;;5005697;28;20153;-68
2022/10/04 05:51:25;;;;;;;7.22;5.13;;;12.20;82.50;;;;;;4996589;28;20022;-67
2022/10/04 05:53:53;;;;;;;7.15;4.88;;;12.20;82.50;;;;;;5010835;28;20096;-68
2022/10/04 05:56:40;;;;;;;8.88;5.50;;;12.30;82.50;;;;;;5011060;28;20022;-67
2022/10/04 05:59:22;;;;;;;8.00;6.20;;;12.30;82.50;;;;;;5011289;28;20044;-67
2022/10/04 06:02:16;;;;;;;9.63;7.03;;;12.20;82.50;;;;;;4997793;28;20029;-67
2022/10/04 06:05:00;;;;;;;10.68;6.97;;;12.20;82.70;;;;;;5008311;28;20503;-67
2022/10/04 06:07:40;;;;;;;6.90;5.68;;;12.10;82.90;;;;;;5009642;28;20391;-67
2022/10/04 06:10:24;;;;;;;10.32;6.15;;;12.10;83.00;;;;;;5010606;28;20033;-67
2022/10/04 06:13:14;;;;;;;10.70;6.70;;;12.10;83.10;;;;;;5009704;28;20036;-67
2022/10/04 06:15:56;;;;;;;9.18;5.85;;;12.20;83.00;;;;;;5010364;28;20386;-67
2022/10/04 06:18:44;;;;;;;8.65;5.88;;;12.20;83.00;;;;;;5001394;28;20041;-67
2022/10/04 06:21:27;;;;;;;7.80;5.57;;;12.20;82.90;;;;;;5016815;28;20030;-66
2022/10/04 06:24:04;;;;;;;9.85;6.20;;;12.20;82.90;;;;;;5017309;28;20025;-66
2022/10/04 06:26:39;;;;;;;7.72;5.50;;;12.30;82.80;;;;;;5012561;28;20503;-66
2022/10/04 06:29:10;;;;;;;8.38;5.88;;;12.30;82.70;;;;;;5011052;28;20029;-66
2022/10/04 06:31:54;;;;;;;9.73;6.88;;;12.30;82.70;;;;;;5010659;28;20026;-67
2022/10/04 06:34:37;;;;;;;7.53;6.10;;;12.30;82.70;;;;;;5010545;28;20396;-67
2022/10/04 06:37:06;;;;;;;8.73;6.10;;;12.30;82.80;;;;;;5025391;28;20025;-67
2022/10/04 06:39:49;;;;;;;8.93;5.93;;;12.30;82.70;;;;;;5027537;28;20060;-67
2022/10/04 06:42:33;;;;;;;9.63;6.18;;;12.40;82.80;;;;;;5010497;28;20049;-67
2022/10/04 06:45:28;;;;;;;7.55;5.72;;;12.40;82.70;;;;;;5010065;28;20388;-66
2022/10/04 06:48:02;;;;;;;8.48;6.20;;;12.40;82.60;;;;;;5010531;28;20030;-67
2022/10/04 06:50:46;;;;;;;9.50;7.05;;;12.30;82.70;;;;;;5006310;28;20113;-67
2022/10/04 06:53:22;;;;;;;7.90;6.13;;;12.30;82.90;;;;;;5008115;28;20022;-67
2022/10/04 06:56:16;;;;;;;7.30;5.68;;;12.40;82.80;;;;;;5004310;28;20023;-67
2022/10/04 06:58:48;;;;;;;9.07;6.25;;;12.40;82.70;;;;;;4999163;28;20026;-68
2022/10/04 07:01:30;;;;;;;7.20;5.20;;;12.40;82.60;;;;;;5009187;28;20044;-67
2022/10/04 07:04:00;;;;;;;8.60;5.97;;;12.50;82.60;;;;;;5014347;28;20093;-67
2022/10/04 07:06:39;;;;;;;9.90;6.80;;;12.50;82.50;;;;;;5012404;28;20030;-67
2022/10/04 07:09:18;;;;;;;10.02;6.75;;;12.50;82.50;;;;;;5014036;28;20405;-67
2022/10/04 07:12:07;;;;;;;8.55;6.43;;;12.50;82.50;;;;;;5008777;28;20504;-67
2022/10/04 07:14:42;;;;;;;12.30;7.32;;;12.50;82.40;;;;;;5013845;28;20402;-67
2022/10/04 07:17:13;;;;;;;11.85;8.48;;;12.50;82.50;;;;;;5003469;28;20449;-67
2022/10/04 07:19:46;;;;;;;7.68;6.22;;;12.60;82.60;;;;;;5000932;28;20019;-67
2022/10/04 07:22:26;;;;;;;8.73;7.00;;;12.50;82.60;;;;;;5010748;28;20144;-66
2022/10/04 07:25:05;;;;;;;8.88;5.95;;;12.60;82.50;;;;;;5013825;28;20061;-67
2022/10/04 07:30:51;;;;;;;11.68;7.80;;;12.70;82.70;;;;;;5013328;28;20522;-67
2022/10/04 07:33:22;;;;;;;10.25;7.03;;;12.70;82.90;;;;;;5012470;28;20696;-67
2022/10/04 07:35:52;;;;;;;12.10;8.15;;;12.70;83.60;;;;;;5013611;28;20025;-67
2022/10/04 07:38:31;;;;;;;9.65;8.57;;;12.70;83.10;;;;;;5013847;28;20026;-67
2022/10/04 07:41:16;;;;;;;12.25;7.30;;;12.80;83.30;;;;;;5013571;28;20487;-67
2022/10/04 07:44:14;;;;;;;8.95;6.20;;;12.80;83.20;;;;;;5012711;28;20073;-67
2022/10/04 07:47:15;;;;;;;9.13;6.43;;;12.90;83.20;;;;;;5012703;28;20091;-67
2022/10/04 07:49:41;;;;;;;13.27;8.57;;;13.00;82.90;;;;;;5000718;28;20120;-67
2022/10/04 07:52:36;;;;;;;8.95;6.30;;;13.10;82.90;;;;;;5005415;28;20023;-67
2022/10/04 07:55:23;;;;;;;8.38;6.25;;;13.20;82.70;;;;;;5007227;28;20362;-67
2022/10/04 07:58:07;;;;;;;8.55;6.15;;;13.40;82.50;;;;;;5002413;28;20030;-67
2022/10/04 08:00:48;;;;;;;7.82;5.90;;;13.50;81.80;;;;;;5012685;28;20500;-67
2022/10/04 08:03:31;;;;;;;9.23;6.72;;;13.50;81.50;;;;;;5008554;28;20107;-67
2022/10/04 08:06:10;;;;;;;7.47;6.00;;;13.50;81.40;;;;;;5012103;28;20061;-67
2022/10/04 08:08:57;;;;;;;7.10;5.57;;;13.50;81.30;;;;;;5009852;28;20032;-67
2022/10/04 08:12:04;;;;;;;10.80;7.63;;;13.60;81.20;;;;;;5007652;28;20061;-67
2022/10/04 08:14:54;;;;;;;9.07;6.18;;;13.60;81.10;;;;;;4989995;28;20064;-67
2022/10/04 08:17:27;;;;;;;11.60;7.10;;;13.70;81.00;;;;;;4984122;28;20053;-67
2022/10/04 08:20:01;;;;;;;7.72;5.47;;;13.80;80.80;;;;;;5004494;28;20034;-66
2022/10/04 08:22:55;;;;;;;8.57;5.13;;;13.90;80.80;;;;;;5008690;28;20037;-67
2022/10/04 08:25:36;;;;;;;11.18;6.60;;;13.90;80.50;;;;;;5011822;28;20026;-67
2022/10/04 08:31:20;;;;;;;7.63;5.47;;;14.10;80.10;;;;;;5003496;28;20073;-66
2022/10/04 08:34:27;;;;;;;8.45;5.30;;;14.20;79.90;;;;;;5004899;28;20428;-67
2022/10/04 08:37:18;;;;;;;11.40;6.10;;;14.30;79.70;;;;;;5007948;28;20044;-67
2022/10/04 08:40:22;;;;;;;9.95;5.65;;;14.50;79.50;;;;;;5007663;28;20490;-67
2022/10/04 08:43:07;;;;;;;12.77;6.70;;;14.50;78.90;;;;;;5009735;28;20627;-67
2022/10/04 08:45:44;;;;;;;9.18;6.00;;;14.60;78.60;;;;;;5006575;28;20030;-67
2022/10/04 08:48:31;;;;;;;12.07;7.55;;;14.60;78.40;;;;;;5007311;28;20448;-67
2022/10/04 08:51:33;;;;;;;10.90;6.47;;;14.60;78.00;;;;;;5010167;28;20037;-66
2022/10/04 08:54:23;;;;;;;6.47;4.97;;;14.50;78.00;;;;;;5010806;28;20026;-68
2022/10/04 08:57:24;;;;;;;8.50;5.45;;;14.70;78.10;;;;;;5007284;28;20473;-66
2022/10/04 09:00:09;;;;;;;8.70;7.00;;;14.80;77.80;;;;;;5008326;28;20112;-67
2022/10/04 09:02:37;;;;;;;7.93;5.13;;;14.90;77.50;;;;;;5001265;28;20400;-67
2022/10/04 09:05:21;;;;;;;11.48;7.78;;;14.90;77.30;;;;;;4998246;28;20079;-67
2022/10/04 09:08:23;;;;;;;13.02;7.80;;;15.00;76.40;;;;;;5006639;28;20575;-67
2022/10/04 09:11:24;;;;;;;10.07;6.63;;;15.00;75.90;;;;;;5007090;28;20123;-67
2022/10/04 09:14:13;;;;;;;7.78;5.95;;;14.90;75.70;;;;;;5004279;28;20120;-67
2022/10/04 09:16:41;;;;;;;8.35;6.20;;;15.00;75.60;;;;;;5005003;28;20037;-67
2022/10/04 09:19:26;;;;;;;8.02;5.75;;;15.00;75.40;;;;;;5007687;28;20026;-67
2022/10/04 09:21:55;;;;;;;9.98;6.20;;;15.10;75.40;;;;;;5006481;28;20511;-67
2022/10/04 09:24:52;;;;;;;9.50;6.57;;;15.10;74.90;;;;;;5008609;28;20738;-67
2022/10/04 09:27:44;;;;;;;10.68;6.80;;;15.10;74.80;;;;;;5009262;28;20037;-67
2022/10/04 09:30:49;;;;;;;10.60;6.47;;;15.20;74.60;;;;;;5008042;28;20083;-67
2022/10/04 09:33:20;;;;;;;13.02;7.72;;;15.20;74.30;;;;;;5008163;28;20088;-67
2022/10/04 09:36:05;;;;;;;9.30;6.55;;;15.30;74.30;;;;;;5009461;28;20072;-67
2022/10/04 09:38:51;;;;;;;7.57;4.90;;;15.30;73.80;;;;;;5008626;28;20025;-67
2022/10/04 09:41:39;;;;;;;6.10;4.07;;;15.40;74.10;;;;;;5007926;28;20480;-67
2022/10/04 09:44:19;;;;;;;7.45;4.60;;;15.50;74.20;;;;;;5006371;28;20030;-67
2022/10/04 09:47:02;;;;;;;10.60;6.78;;;15.60;74.00;;;;;;5007882;28;20060;-67
2022/10/04 09:49:55;;;;;;;9.30;6.65;;;15.70;73.60;;;;;;5009261;28;20034;-67
2022/10/04 09:52:40;;;;;;;9.32;6.72;;;15.80;73.40;;;;;;5007729;28;20153;-67
2022/10/04 09:55:31;;;;;;;8.93;6.72;;;15.80;73.10;;;;;;5006693;28;20104;-67
2022/10/04 09:58:00;;;;;;;9.90;6.30;;;15.90;73.00;;;;;;5008379;28;20030;-67
2022/10/04 10:00:35;;;;;;;9.07;6.05;;;15.90;72.80;;;;;;5008557;28;20109;-67
2022/10/04 10:03:14;;;;;;;7.35;5.47;;;16.00;72.60;;;;;;5009136;28;20427;-67
2022/10/04 10:06:07;;;;;;;10.77;5.70;;;16.00;72.70;;;;;;5007827;28;20057;-67
2022/10/04 10:08:39;;;;;;;8.90;4.78;;;16.10;72.10;;;;;;5008065;28;20048;-67
2022/10/04 10:14:45;;;;;;;9.55;5.78;;;16.20;71.40;;;;;;5006492;28;20045;-67
2022/10/04 10:17:35;;;;;;;8.48;5.10;;;16.20;70.80;;;;;;5007783;28;20122;-67
2022/10/04 10:20:15;;;;;;;7.90;4.55;;;16.30;71.00;;;;;;5006594;28;20029;-67
2022/10/04 10:22:52;;;;;;;6.97;4.35;;;16.40;70.90;;;;;;5007414;28;20029;-67
2022/10/04 10:25:47;;;;;;;7.35;4.32;;;16.60;71.00;;;;;;5006455;28;20041;-67
2022/10/04 10:28:41;;;;;;;9.27;5.38;;;16.60;70.50;;;;;;5005439;28;20068;-68
2022/10/04 10:31:43;;;;;;;10.43;4.70;;;16.70;69.80;;;;;;5005912;28;20157;-68
2022/10/04 10:35:02;;;;;;;7.82;4.25;;;16.80;69.80;;;;;;5007194;28;20654;-68
2022/10/04 10:38:03;;;;;;;6.75;3.85;;;16.80;69.40;;;;;;4985692;28;20053;-68
2022/10/04 10:40:53;;;;;;;5.80;3.70;;;16.80;69.20;;;;;;5005607;28;20037;-66
2022/10/04 10:43:26;;;;;;;7.93;4.03;;;16.90;68.90;;;;;;5007708;28;20026;-67
2022/10/04 10:46:10;;;;;;;7.45;4.07;;;17.00;68.60;;;;;;5007516;28;20033;-67
2022/10/04 10:48:42;;;;;;;5.75;3.78;;;17.10;68.70;;;;;;5004968;28;20032;-66
2022/10/04 10:51:33;;;;;;;6.25;3.60;;;17.10;68.30;;;;;;5005762;28;20021;-67
2022/10/04 10:54:28;;;;;;;5.32;3.28;;;17.20;68.30;;;;;;5003844;28;20037;-67
2022/10/04 10:57:16;;;;;;;6.65;4.93;;;17.30;68.40;;;;;;5007507;28;20056;-67
2022/10/04 11:00:19;;;;;;;8.13;4.25;;;17.40;67.50;;;;;;5003688;28;20481;-67
2022/10/04 11:02:51;;;;;;;8.10;5.13;;;17.40;67.30;;;;;;5006081;28;20115;-67
2022/10/04 11:05:23;;;;;;;6.85;4.72;;;17.50;67.20;;;;;;5006819;28;20419;-67
2022/10/04 11:08:03;;;;;;;8.23;5.30;;;17.50;66.80;;;;;;5007053;28;20038;-67
2022/10/04 11:11:02;;;;;;;7.65;5.43;;;17.50;66.30;;;;;;5006896;28;20112;-67
2022/10/04 11:13:53;;;;;;;6.07;4.30;;;17.60;66.70;;;;;;5003396;28;20101;-68
2022/10/04 11:16:34;;;;;;;9.57;5.65;;;17.70;66.30;;;;;;5005562;28;20022;-67
2022/10/04 11:19:28;;;;;;;9.30;5.43;;;17.80;65.90;;;;;;5008681;28;20030;-67
2022/10/04 11:22:30;;;;;;;8.25;4.68;;;17.80;65.80;;;;;;5005894;28;20030;-66
2022/10/04 11:25:35;;;;;;;10.10;5.10;;;17.80;65.70;;;;;;5005846;28;20496;-66
2022/10/04 11:28:25;;;;;;;8.60;4.90;;;18.00;65.90;;;;;;5007103;28;20057;-67
2022/10/04 11:31:28;;;;;;;6.20;3.60;;;18.00;65.10;;;;;;5004853;28;20061;-67
2022/10/04 11:34:37;;;;;;;5.47;3.92;;;18.10;65.40;;;;;;5003220;28;20041;-67
2022/10/04 11:37:20;;;;;;;7.50;4.50;;;18.20;65.30;;;;;;5005995;28;20018;-67
2022/10/04 11:40:01;;;;;;;6.03;3.22;;;18.30;65.00;;;;;;5006769;28;20412;-67
2022/10/04 11:43:09;;;;;;;8.57;5.00;;;18.40;65.00;;;;;;5005808;28;20026;-67
2022/10/04 11:46:15;;;;;;;11.25;5.72;;;18.40;64.30;;;;;;5005482;28;20077;-67
2022/10/04 11:49:12;;;;;;;9.45;5.25;;;18.50;63.60;;;;;;5009439;28;20511;-67
2022/10/04 11:52:11;;;;;;;8.13;5.05;;;18.50;63.40;;;;;;5011427;28;20030;-67
2022/10/04 11:54:44;;;;;;;8.73;4.90;;;18.60;63.50;;;;;;5011556;28;20049;-67
2022/10/04 11:57:18;;;;;;;7.13;4.53;;;18.70;62.90;;;;;;5011129;28;20506;-67
2022/10/04 12:00:15;;;;;;;4.13;2.83;;;18.80;62.80;;;;;;5010224;28;20025;-67
2022/10/04 12:02:59;;;;;;;6.75;3.22;;;18.90;63.10;;;;;;5008262;28;20092;-67
2022/10/04 12:05:51;;;;;;;6.50;3.50;;;19.10;62.70;;;;;;5008274;28;20053;-66
2022/10/04 12:08:36;;;;;;;7.00;3.85;;;19.20;61.80;;;;;;5009016;28;20053;-67
2022/10/04 12:11:01;;;;;;;5.68;3.88;;;19.20;61.70;;;;;;5010279;28;20053;-67
2022/10/04 12:13:52;;;;;;;7.50;4.43;;;19.20;60.70;;;;;;5011379;28;20443;-67
2022/10/04 12:16:42;;;;;;;8.07;3.85;;;19.20;59.80;;;;;;5010719;28;20140;-67
2022/10/04 12:19:29;;;;;;;6.85;3.80;;;19.10;60.10;;;;;;5011306;28;20485;-66
2022/10/04 12:22:17;;;;;;;8.75;4.28;;;19.10;59.60;;;;;;5008560;28;20034;-66
2022/10/04 12:25:13;;;;;;;7.97;3.65;;;19.20;58.70;;;;;;4989106;28;20123;-67
2022/10/04 12:28:10;;;;;;;6.65;3.20;;;19.10;58.20;;;;;;5010854;28;20036;-67
2022/10/04 12:30:45;;;;;;;5.15;2.47;;;19.10;58.70;;;;;;5009736;28;20030;-66
2022/10/04 12:33:31;;;;;;;6.60;3.40;;;19.20;59.20;;;;;;5006142;28;20405;-67
2022/10/04 12:36:12;;;;;;;6.85;3.90;;;19.20;59.10;;;;;;5008485;28;20106;-67
2022/10/04 12:39:15;;;;;;;7.35;3.67;;;19.40;58.40;;;;;;5006412;28;20028;-67
2022/10/04 12:42:06;;;;;;;5.60;2.80;;;19.50;57.80;;;;;;5006018;28;20044;-67
2022/10/04 12:45:00;;;;;;;4.63;2.72;;;19.60;58.20;;;;;;5009232;28;20029;-68
2022/10/04 12:47:49;;;;;;;6.57;3.58;;;19.70;57.90;;;;;;5000852;28;20394;-67
2022/10/04 12:50:33;;;;;;;5.13;2.88;;;19.80;57.50;;;;;;5014235;28;20029;-66
2022/10/04 12:53:33;;;;;;;4.18;2.97;;;19.90;57.30;;;;;;5005069;28;20121;-67
2022/10/04 12:56:21;;;;;;;5.50;3.42;;;20.00;56.60;;;;;;5007886;28;20014;-67
2022/10/04 12:58:58;;;;;;;7.85;3.80;;;20.00;56.20;;;;;;5007751;28;20083;-68
2022/10/04 13:01:37;;;;;;;4.95;2.95;;;19.90;55.90;;;;;;5010149;28;20033;-67
2022/10/04 13:04:46;;;;;;;4.57;2.38;;;19.90;56.60;;;;;;5008846;28;20052;-68
2022/10/04 13:07:35;;;;;;;5.82;2.85;;;19.90;57.20;;;;;;5016565;28;20492;-68
2022/10/04 13:10:34;;;;;;;5.75;3.03;;;20.00;56.90;;;;;;5007522;28;20046;-69
2022/10/04 13:13:17;;;;;;;6.72;3.40;;;20.10;55.90;;;;;;5007627;28;20124;-68
2022/10/04 13:15:57;;;;;;;3.80;2.40;;;20.20;54.70;;;;;;5008811;28;20025;-68
2022/10/04 13:18:38;;;;;;;3.83;2.30;;;20.30;55.20;;;;;;5007460;28;20083;-68
2022/10/04 13:21:07;;;;;;;5.57;3.10;;;20.40;55.10;;;;;;5009890;28;20087;-68
2022/10/04 13:23:45;;;;;;;6.95;3.47;;;20.60;54.20;;;;;;5008643;28;20029;-66
2022/10/04 13:26:25;;;;;;;3.33;2.17;;;20.50;53.30;;;;;;5008920;28;20030;-68
2022/10/04 13:29:14;;;;;;;6.63;3.85;;;20.60;54.10;;;;;;5007949;28;20057;-67
2022/10/04 13:31:49;;;;;;;5.20;2.78;;;20.70;53.50;;;;;;5009135;28;20034;-67
2022/10/04 13:34:48;;;;;;;4.90;2.53;;;20.70;53.60;;;;;;5002758;28;20540;-67
2022/10/04 13:37:38;;;;;;;6.00;3.00;;;20.80;53.70;;;;;;5007034;28;20038;-67
2022/10/04 13:40:27;;;;;;;4.43;2.60;;;20.80;53.20;;;;;;5004169;28;20093;-67
2022/10/04 13:43:11;;;;;;;4.28;2.75;;;20.80;53.40;;;;;;5005903;28;20030;-67
2022/10/04 13:46:18;;;;;;;4.85;2.67;;;20.70;53.50;;;;;;5003622;28;20030;-67
2022/10/04 13:49:05;;;;;;;3.97;2.22;;;20.80;53.90;;;;;;5004885;28;20034;-67
2022/10/04 13:56:35;;;;;;;5.57;2.63;;;21.00;54.00;;;;;;5006472;28;20030;-67
2022/10/04 13:58:17;;;;;;;4.32;2.30;;;21.00;52.20;;;;;;5011300;28;20052;-66
2022/10/04 14:00:43;;;;;;;6.30;2.60;;;20.90;51.80;;;;;;5008068;28;20030;-67
2022/10/04 14:03:32;;;;;;;4.53;2.33;;;20.90;50.90;;;;;;5007431;28;20048;-67
2022/10/04 14:06:04;;;;;;;4.57;2.30;;;20.90;51.30;;;;;;5008004;28;20029;-67
2022/10/04 14:08:49;;;;;;;3.47;2.33;;;21.00;51.70;;;;;;5009543;28;20057;-67
2022/10/04 14:11:52;;;;;;;6.18;2.83;;;21.00;51.90;;;;;;5010631;28;20029;-67
2022/10/04 14:14:18;;;;;;;3.58;2.00;;;21.00;51.70;;;;;;5005141;28;20037;-67